Terminal Aerodrome Forecast
Issued by NWS

Home | Current Version | Previous Version | Text Only | Print | Product List | Glossary On
Versions: 1 2 3 4 5 6 7 8 9 10 11 12 13 14
000
FTUS43 KMQT 270500
TAFCMX
TAF
KCMX 270522Z 2706/2806 35005KT 4SM -SHSN OVC016
     FM270700 01011KT 3SM -SN OVC015
     FM271200 01010KT 1SM -SN OVC008
     FM272000 33008KT 3SM -SN OVC015
     FM272300 31010KT P6SM -SN OVC025=

USA.gov is the U.S. government's official web portal to all federal, state and local government web resources and services.